createdAt,value
2019-05-30T00:04:31.497Z,10.70
2019-05-30T00:09:35.174Z,10.60
2019-05-30T00:14:38.869Z,10.40
2019-05-30T00:19:42.542Z,10.20
2019-05-30T00:24:46.663Z,10.30
2019-05-30T00:29:50.549Z,10.20
2019-05-30T00:34:55.546Z,10.20
2019-05-30T00:39:59.879Z,10.20
2019-05-30T00:45:19.603Z,9.90
2019-05-30T00:50:09.492Z,9.90
2019-05-30T00:55:13.390Z,9.80
2019-05-30T01:00:18.333Z,9.60
2019-05-30T01:05:22.050Z,9.60
2019-05-30T01:10:25.759Z,9.50
2019-05-30T01:15:29.454Z,9.30
2019-05-30T01:20:33.192Z,9.20
2019-05-30T01:25:37.194Z,9.10
2019-05-30T01:30:41.017Z,9.00
2019-05-30T01:35:44.690Z,8.90
2019-05-30T01:40:48.437Z,9.00
2019-05-30T01:45:52.422Z,9.10
2019-05-30T01:50:56.086Z,9.20
2019-05-30T01:56:00.688Z,8.80
2019-05-30T02:01:19.077Z,9.00
2019-05-30T02:06:45.767Z,8.80
2019-05-30T02:11:49.823Z,8.90
2019-05-30T02:16:54.488Z,8.70
2019-05-30T02:21:58.191Z,8.60
2019-05-30T02:27:02.227Z,8.40
2019-05-30T02:32:07.041Z,8.50
2019-05-30T02:37:12.768Z,8.30
2019-05-30T02:42:16.480Z,8.40
2019-05-30T02:47:22.465Z,8.40
2019-05-30T02:52:25.523Z,8.20
2019-05-30T02:57:29.256Z,8.20
2019-05-30T03:02:32.935Z,8.30
2019-05-30T03:07:36.744Z,8.10
2019-05-30T03:12:40.621Z,8.10
2019-05-30T03:17:44.298Z,8.10
2019-05-30T03:22:47.966Z,8.00
2019-05-30T03:27:51.732Z,7.80
2019-05-30T03:33:15.837Z,8.00
2019-05-30T03:38:01.006Z,8.00
2019-05-30T03:43:05.977Z,7.90
2019-05-30T03:48:15.582Z,7.80
2019-05-30T03:53:19.163Z,7.90
2019-05-30T03:58:31.858Z,7.90
2019-05-30T04:03:41.026Z,7.90
2019-05-30T04:08:48.422Z,8.00
2019-05-30T04:13:56.160Z,8.00
2019-05-30T04:18:59.883Z,8.00
2019-05-30T04:24:07.308Z,8.10
2019-05-30T04:29:12.206Z,8.20
2019-05-30T04:34:17.706Z,8.40
2019-05-30T04:39:21.979Z,8.60
2019-05-30T04:44:25.668Z,8.90
2019-05-30T04:49:29.404Z,8.90
2019-05-30T04:54:33.156Z,9.00
2019-05-30T04:59:36.868Z,9.10
2019-05-30T05:04:40.591Z,9.30
2019-05-30T05:09:44.874Z,9.40
2019-05-30T05:14:48.805Z,9.60
2019-05-30T05:19:52.790Z,9.60
2019-05-30T05:24:56.736Z,9.70
2019-05-30T05:30:00.667Z,10.00
2019-05-30T05:35:04.645Z,10.30
2019-05-30T05:40:08.400Z,10.40
2019-05-30T05:45:12.592Z,10.50
2019-05-30T05:50:16.739Z,10.80
2019-05-30T05:55:20.920Z,10.90
2019-05-30T06:00:25.290Z,11.20
2019-05-30T06:05:29.083Z,11.60
2019-05-30T06:10:33.262Z,11.80
2019-05-30T06:15:37.262Z,12.00
2019-05-30T06:20:42.695Z,12.10
2019-05-30T06:25:46.361Z,12.30
2019-05-30T06:30:50.110Z,12.50
2019-05-30T06:35:53.851Z,12.60
2019-05-30T06:40:57.530Z,12.80
2019-05-30T06:46:01.201Z,13.10
2019-05-30T06:51:04.963Z,13.20
2019-05-30T06:56:08.666Z,13.30
2019-05-30T07:01:12.835Z,13.60
2019-05-30T07:06:16.918Z,13.70
2019-05-30T07:11:20.797Z,13.90
2019-05-30T07:16:25.346Z,14.30
2019-05-30T07:21:29.780Z,14.60
2019-05-30T07:26:34.050Z,14.60
2019-05-30T07:31:37.847Z,14.70
2019-05-30T07:36:41.748Z,14.80
2019-05-30T07:41:45.444Z,14.90
2019-05-30T07:46:49.148Z,15.20
2019-05-30T07:51:53.053Z,15.30
2019-05-30T07:56:57.231Z,15.40
2019-05-30T08:02:00.991Z,15.60
2019-05-30T08:07:05.117Z,15.70
2019-05-30T08:12:09.666Z,16.00
2019-05-30T08:17:14.402Z,16.10
2019-05-30T08:28:42.732Z,16.30
2019-05-30T08:34:33.134Z,16.40
2019-05-30T08:39:20.129Z,16.70
2019-05-30T08:44:23.858Z,17.10
2019-05-30T08:49:27.851Z,17.40
2019-05-30T08:54:32.216Z,17.60
2019-05-30T08:59:36.686Z,17.90
2019-05-30T09:04:40.529Z,18.00
2019-05-30T09:09:44.799Z,19.00
2019-05-30T09:14:48.486Z,21.60
2019-05-30T09:19:52.191Z,23.10
2019-05-30T09:24:55.927Z,25.70
2019-05-30T09:29:59.650Z,27.60
2019-05-30T09:35:03.554Z,30.00
2019-05-30T09:40:08.505Z,31.70
2019-05-30T09:45:14.522Z,33.20
2019-05-30T09:50:18.479Z,34.70
2019-05-30T09:55:22.836Z,36.50
2019-05-30T10:00:26.742Z,37.10
2019-05-30T10:05:30.464Z,36.10
2019-05-30T10:10:34.416Z,36.00
2019-05-30T10:15:38.464Z,35.40
2019-05-30T10:20:42.476Z,36.60
2019-05-30T10:25:47.837Z,35.90
2019-05-30T10:30:57.341Z,36.00
2019-05-30T10:36:07.271Z,36.80
2019-05-30T10:41:11.138Z,37.70
2019-05-30T10:46:20.791Z,38.70
2019-05-30T10:51:24.825Z,38.90
2019-05-30T10:56:28.669Z,37.70
2019-05-30T11:01:33.127Z,37.80
2019-05-30T11:07:06.820Z,36.50
2019-05-30T11:11:55.004Z,39.90
2019-05-30T11:16:58.706Z,42.60
2019-05-30T11:22:02.857Z,42.40
2019-05-30T11:27:06.987Z,40.40
2019-05-30T11:32:10.940Z,40.00
2019-05-30T11:37:18.808Z,40.40
2019-05-30T11:42:20.749Z,41.00
2019-05-30T11:47:27.112Z,39.90
2019-05-30T11:52:31.177Z,41.30
2019-05-30T11:57:38.446Z,40.20
2019-05-30T12:02:43.194Z,39.30
2019-05-30T12:07:50.599Z,38.80
2019-05-30T12:12:57.225Z,39.30
2019-05-30T12:18:07.897Z,41.20
2019-05-30T12:23:13.317Z,41.50
2019-05-30T12:28:19.023Z,41.20
2019-05-30T12:33:23.133Z,40.50
2019-05-30T12:38:29.013Z,40.80
2019-05-30T12:43:36.073Z,39.60
2019-05-30T12:48:41.818Z,36.40
2019-05-30T12:53:46.717Z,34.50
2019-05-30T12:58:51.689Z,34.80
2019-05-30T13:04:01.022Z,36.40
2019-05-30T13:09:09.053Z,39.00
2019-05-30T13:14:17.825Z,40.10
2019-05-30T13:19:24.857Z,38.70
2019-05-30T13:24:29.047Z,37.10
2019-05-30T13:29:33.898Z,36.10
2019-05-30T13:34:39.501Z,35.60
2019-05-30T13:39:43.563Z,36.30
2019-05-30T13:44:51.812Z,36.50
2019-05-30T13:49:56.399Z,35.30
2019-05-30T13:55:05.379Z,32.90
2019-05-30T14:00:10.750Z,33.80
2019-05-30T14:05:15.863Z,34.40
2019-05-30T14:10:19.780Z,35.70
2019-05-30T14:15:23.938Z,34.20
2019-05-30T14:20:27.696Z,33.30
2019-05-30T14:25:31.688Z,33.00
2019-05-30T14:30:35.406Z,32.90
2019-05-30T14:35:39.433Z,33.70
2019-05-30T14:40:45.305Z,34.10
2019-05-30T14:45:49.371Z,33.80
2019-05-30T14:50:53.086Z,32.60
2019-05-30T14:55:57.281Z,31.90
2019-05-30T15:01:01.125Z,31.50
2019-05-30T15:06:06.920Z,33.30
2019-05-30T15:11:13.650Z,33.40
2019-05-30T15:16:17.535Z,35.00
2019-05-30T15:21:21.473Z,33.90
2019-05-30T15:26:25.180Z,33.40
2019-05-30T15:31:28.922Z,32.70
2019-05-30T15:36:32.745Z,32.20
2019-05-30T15:41:36.735Z,31.40
2019-05-30T15:46:40.688Z,31.20
2019-05-30T15:51:44.379Z,31.10
2019-05-30T15:56:48.367Z,30.90
2019-05-30T16:01:52.124Z,31.30
2019-05-30T16:06:56.056Z,31.20
2019-05-30T16:11:59.790Z,30.40
2019-05-30T16:17:03.722Z,30.30
2019-05-30T16:22:07.739Z,30.50
2019-05-30T16:27:13.427Z,30.70
2019-05-30T16:32:19.174Z,30.40
2019-05-30T16:37:26.153Z,30.80
2019-05-30T16:42:30.951Z,30.80
2019-05-30T16:47:36.381Z,30.70
2019-05-30T16:52:41.272Z,30.10
2019-05-30T16:57:46.258Z,29.40
2019-05-30T17:02:50.307Z,29.30
2019-05-30T17:07:55.332Z,28.70
2019-05-30T17:13:00.763Z,28.80
2019-05-30T17:18:06.676Z,28.20
2019-05-30T17:23:13.943Z,27.50
2019-05-30T17:28:22.265Z,27.20
2019-05-30T17:33:28.264Z,27.50
2019-05-30T17:38:35.718Z,27.50
2019-05-30T17:43:43.122Z,27.10
2019-05-30T17:48:54.092Z,27.30
2019-05-30T17:53:59.923Z,27.30
2019-05-30T17:59:05.704Z,27.10
2019-05-30T18:04:12.100Z,26.50
2019-05-30T18:09:18.171Z,26.00
2019-05-30T18:14:25.058Z,25.30
2019-05-30T18:19:32.863Z,25.00
2019-05-30T18:24:36.834Z,24.30
2019-05-30T18:29:42.107Z,23.80
2019-05-30T18:34:47.100Z,23.30
2019-05-30T18:39:50.799Z,23.00
2019-05-30T18:44:55.244Z,23.00
2019-05-30T18:49:59.047Z,22.80
2019-05-30T18:55:05.421Z,22.40
2019-05-30T19:00:51.218Z,22.20
2019-05-30T19:05:55.501Z,21.80
2019-05-30T19:10:59.440Z,21.50
2019-05-30T19:16:03.313Z,21.50
2019-05-30T19:21:08.114Z,21.30
2019-05-30T19:26:12.151Z,21.10
2019-05-30T19:31:16.516Z,20.90
2019-05-30T19:36:20.275Z,20.70
2019-05-30T19:41:23.964Z,20.40
2019-05-30T19:46:28.050Z,20.20
2019-05-30T19:51:32.937Z,20.00
2019-05-30T19:56:40.156Z,20.00
2019-05-30T20:01:42.415Z,19.90
2019-05-30T20:06:46.085Z,19.70
2019-05-30T20:12:02.657Z,19.60
2019-05-30T20:16:55.486Z,19.50
2019-05-30T20:21:59.303Z,19.40
2019-05-30T20:27:03.055Z,19.30
2019-05-30T20:32:07.015Z,19.20
2019-05-30T20:37:10.677Z,19.10
2019-05-30T20:42:19.108Z,19.10
2019-05-30T20:47:19.803Z,18.90
2019-05-30T20:52:23.483Z,18.90
2019-05-30T20:57:27.199Z,18.80
2019-05-30T21:02:30.916Z,18.70
2019-05-30T21:07:35.854Z,18.80
2019-05-30T21:12:43.514Z,18.80
2019-05-30T21:17:46.386Z,18.70
2019-05-30T21:22:50.115Z,18.60
2019-05-30T21:27:53.793Z,18.60
2019-05-30T21:32:57.562Z,18.40
2019-05-30T21:38:01.457Z,18.10
2019-05-30T21:43:07.178Z,17.90
2019-05-30T21:48:10.805Z,17.90
2019-05-30T21:53:14.990Z,17.70
2019-05-30T21:58:18.698Z,17.60
2019-05-30T22:03:22.635Z,17.60
2019-05-30T22:08:26.321Z,17.50
2019-05-30T22:13:30.008Z,17.40
2019-05-30T22:18:33.698Z,17.50
2019-05-30T22:23:37.639Z,17.50
2019-05-30T22:28:42.260Z,17.50
2019-05-30T22:33:46.617Z,17.50
2019-05-30T22:38:50.987Z,17.50
2019-05-30T22:43:54.794Z,17.60
2019-05-30T22:48:58.507Z,17.60
2019-05-30T22:54:02.169Z,17.60
2019-05-30T22:59:06.041Z,17.60
2019-05-30T23:04:09.779Z,17.40
2019-05-30T23:09:14.008Z,17.40
2019-05-30T23:14:17.939Z,17.30
2019-05-30T23:19:21.835Z,17.20
2019-05-30T23:24:25.521Z,17.00
2019-05-30T23:29:30.622Z,17.00
2019-05-30T23:34:34.358Z,17.10
2019-05-30T23:39:38.065Z,16.90
2019-05-30T23:44:42.041Z,17.00
2019-05-30T23:49:45.972Z,16.80
2019-05-30T23:54:50.022Z,16.50
2019-05-30T23:59:54.798Z,16.50
